Time,TemperatureF,DewpointF,PressureIn,WindDirection,WindDirectionDegrees,WindSpeedMPH,WindSpeedGustMPH,Humidity,HourlyPrecipIn,Conditions,Clouds,dailyrainin,SoftwareType,DateUTC
2013-11-11 00:01:00,38.1,27.0,30.19,West,270,6.3,10.4,64,0.00,RA,,0.00,WeatherDisplay:10.37,2013-11-11 05:01:00,
2013-11-11 00:02:00,38.1,27.0,30.19,WSW,248,4.8,6.9,64,0.00,RA,,0.00,WeatherDisplay:10.37,2013-11-11 05:02:00,
2013-11-11 00:03:00,38.1,27.0,30.19,SW,225,6.2,6.9,64,0.00,RA,,0.00,WeatherDisplay:10.37,2013-11-11 05:03:00,
2013-11-11 00:08:00,38.1,27.4,30.19,SW,225,4.7,9.2,65,0.00,RA,,0.00,WeatherDisplay:10.37,2013-11-11 05:08:00,
2013-11-11 00:13:00,38.1,27.4,30.19,WSW,248,5.7,6.9,65,0.00,SCT,,0.00,WeatherDisplay:10.37,2013-11-11 05:13:00,
2013-11-11 00:18:00,37.9,27.5,30.19,West,270,4.7,5.8,66,0.00,SCT,,0.00,WeatherDisplay:10.37,2013-11-11 05:18:00,
2013-11-11 00:23:00,37.9,27.5,30.19,SW,225,4.2,4.6,66,0.00,SCT,,0.00,WeatherDisplay:10.37,2013-11-11 05:23:00,
2013-11-11 00:28:00,37.8,27.5,30.19,West,270,6.7,9.2,66,0.00,SCT,,0.00,WeatherDisplay:10.37,2013-11-11 05:28:00,
2013-11-11 00:33:00,37.8,27.8,30.19,SW,225,6.6,8.1,67,0.00,SCT,,0.00,WeatherDisplay:10.37,2013-11-11 05:33:00,
2013-11-11 00:38:00,37.6,27.6,30.19,SW,225,4.6,5.8,67,0.00,SCT,,0.00,WeatherDisplay:10.37,2013-11-11 05:38:00,
2013-11-11 00:43:00,37.4,27.4,30.19,West,270,5.2,5.8,67,0.00,SCT,,0.00,WeatherDisplay:10.37,2013-11-11 05:43:00,
2013-11-11 00:48:00,37.4,27.4,30.19,West,270,5.5,5.8,67,0.00,SCT,,0.00,WeatherDisplay:10.37,2013-11-11 05:48:00,
2013-11-11 00:53:00,37.4,27.4,30.19,SW,225,4.9,6.9,67,0.00,SCT,,0.00,WeatherDisplay:10.37,2013-11-11 05:53:00,
2013-11-11 00:58:00,37.4,27.8,30.19,NNW,338,5.4,5.8,68,0.00,SCT,,0.00,WeatherDisplay:10.37,2013-11-11 05:58:00,
2013-11-11 01:03:00,37.2,27.6,30.19,West,270,3.6,4.6,68,0.00,SCT,,0.00,WeatherDisplay:10.37,2013-11-11 06:03:00,
2013-11-11 01:08:00,37.0,27.8,30.19,SW,225,2.7,3.5,69,0.00,SCT,,0.00,WeatherDisplay:10.37,2013-11-11 06:08:00,
2013-11-11 01:13:00,36.9,27.7,30.19,WSW,248,8.3,8.3,69,0.00,SCT,,0.00,WeatherDisplay:10.37,2013-11-11 06:13:00,
2013-11-11 01:18:00,36.9,27.7,30.19,WNW,292,3.1,8.1,69,0.00,SCT,,0.00,WeatherDisplay:10.37,2013-11-11 06:18:00,
2013-11-11 01:23:00,36.7,27.8,30.19,SW,225,3.4,4.6,70,0.00,SCT,,0.00,WeatherDisplay:10.37,2013-11-11 06:23:00,
2013-11-11 01:28:00,36.5,27.6,30.19,West,270,3.0,3.7,70,0.00,SCT,,0.00,WeatherDisplay:10.37,2013-11-11 06:28:00,
2013-11-11 01:33:00,36.3,27.4,30.19,West,270,2.5,3.7,70,0.00,SCT,,0.00,WeatherDisplay:10.37,2013-11-11 06:33:00,
2013-11-11 01:38:00,36.1,27.6,30.19,SW,225,2.4,4.6,71,0.00,SCT,,0.00,WeatherDisplay:10.37,2013-11-11 06:38:00,
2013-11-11 01:43:00,36.1,27.6,30.18,West,270,2.3,3.5,71,0.00,SCT,,0.00,WeatherDisplay:10.37,2013-11-11 06:43:00,
2013-11-11 01:48:00,35.8,27.3,30.18,West,270,1.5,2.3,71,0.00,SCT,,0.00,WeatherDisplay:10.37,2013-11-11 06:48:00,
2013-11-11 01:53:00,35.4,27.3,30.18,SW,225,1.8,2.3,72,0.00,SCT,,0.00,WeatherDisplay:10.37,2013-11-11 06:53:00,
2013-11-11 01:58:00,35.1,27.0,30.18,West,270,0.8,1.1,72,0.00,SCT,,0.00,WeatherDisplay:10.37,2013-11-11 06:58:00,
2013-11-11 02:03:00,34.7,26.9,30.17,WSW,248,0.0,0.0,73,0.00,SCT,,0.00,WeatherDisplay:10.37,2013-11-11 07:03:00,
2013-11-11 02:08:00,34.0,26.6,30.17,SW,225,0.0,0.0,74,0.00,SCT,,0.00,WeatherDisplay:10.37,2013-11-11 07:08:00,
2013-11-11 02:13:00,33.6,26.5,30.17,SW,225,0.0,0.0,75,0.00,SCT,,0.00,WeatherDisplay:10.37,2013-11-11 07:13:00,
2013-11-11 02:18:00,33.1,26.4,30.17,SW,225,0.0,0.0,76,0.00,SCT,,0.00,WeatherDisplay:10.37,2013-11-11 07:18:00,
2013-11-11 02:23:00,32.5,25.8,30.17,SW,225,0.0,0.0,76,0.00,SCT,,0.00,WeatherDisplay:10.37,2013-11-11 07:23:00,
2013-11-11 02:28:00,32.2,25.8,30.17,WSW,248,0.0,0.0,77,0.00,SCT,,0.00,WeatherDisplay:10.37,2013-11-11 07:28:00,
2013-11-11 02:33:00,31.8,25.4,30.17,WSW,248,0.0,0.0,77,0.00,SCT,,0.00,WeatherDisplay:10.37,2013-11-11 07:33:00,
2013-11-11 02:38:00,31.3,24.9,30.17,South,180,0.0,0.0,77,0.00,SCT,,0.00,WeatherDisplay:10.37,2013-11-11 07:38:00,
2013-11-11 02:43:00,31.3,25.8,30.17,SSE,158,0.0,0.0,80,0.00,SCT,,0.00,WeatherDisplay:10.37,2013-11-11 07:43:00,
2013-11-11 02:48:00,30.9,25.5,30.17,SSW,202,0.0,0.0,80,0.00,SCT,,0.00,WeatherDisplay:10.37,2013-11-11 07:48:00,
2013-11-11 02:53:00,30.4,24.7,30.17,SSW,202,0.0,0.0,79,0.00,SCT,,0.00,WeatherDisplay:10.37,2013-11-11 07:53:00,
2013-11-11 02:58:00,30.0,24.0,30.17,SSW,202,0.0,0.0,78,0.00,SCT,,0.00,WeatherDisplay:10.37,2013-11-11 07:58:00,
2013-11-11 03:03:00,29.7,24.0,30.17,South,180,0.0,0.0,79,0.00,SCT,,0.00,WeatherDisplay:10.37,2013-11-11 08:03:00,
2013-11-11 03:08:00,29.5,24.7,30.17,South,180,0.0,0.0,82,0.00,SCT,,0.00,WeatherDisplay:10.37,2013-11-11 08:08:00,
2013-11-11 03:13:00,29.3,24.5,30.17,South,180,0.0,0.0,82,0.00,SCT,,0.00,WeatherDisplay:10.37,2013-11-11 08:13:00,
2013-11-11 03:18:00,28.8,24.0,30.17,South,180,0.0,0.0,82,0.00,SCT,,0.00,WeatherDisplay:10.37,2013-11-11 08:18:00,
2013-11-11 03:23:00,28.8,24.3,30.17,South,180,0.0,0.0,83,0.00,SCT,,0.00,WeatherDisplay:10.37,2013-11-11 08:23:00,
2013-11-11 03:28:00,28.8,24.9,30.16,South,180,0.0,0.0,85,0.00,SCT,,0.00,WeatherDisplay:10.37,2013-11-11 08:28:00,
2013-11-11 03:33:00,28.4,24.5,30.16,South,180,0.0,0.0,85,0.00,SCT,,0.00,WeatherDisplay:10.37,2013-11-11 08:33:00,
2013-11-11 03:38:00,28.0,23.8,30.16,South,180,0.0,0.0,84,0.00,SCT,,0.00,WeatherDisplay:10.37,2013-11-11 08:38:00,
2013-11-11 03:43:00,27.9,24.0,30.17,ESE,112,0.0,0.0,85,0.00,SCT,,0.00,WeatherDisplay:10.37,2013-11-11 08:43:00,
2013-11-11 03:48:00,28.6,25.8,30.17,SSE,158,0.0,0.0,89,0.00,SCT,,0.00,WeatherDisplay:10.37,2013-11-11 08:48:00,
2013-11-11 03:53:00,28.2,25.4,30.16,SE,135,0.0,0.0,89,0.00,SCT,,0.00,WeatherDisplay:10.37,2013-11-11 08:53:00,
2013-11-11 03:58:00,27.9,24.8,30.16,SE,135,0.0,0.0,88,0.00,SCT,,0.00,WeatherDisplay:10.37,2013-11-11 08:58:00,
2013-11-11 04:03:00,27.9,25.1,30.16,SSE,158,0.0,0.0,89,0.00,CLR,,0.00,WeatherDisplay:10.37,2013-11-11 09:03:00,
2013-11-11 04:08:00,27.7,24.6,30.16,SE,135,0.0,0.0,88,0.00,CLR,,0.00,WeatherDisplay:10.37,2013-11-11 09:08:00,
2013-11-11 04:13:00,27.7,24.6,30.16,ESE,112,0.0,0.0,88,0.00,CLR,,0.00,WeatherDisplay:10.37,2013-11-11 09:13:00,
2013-11-11 04:18:00,27.9,25.1,30.16,SSE,158,0.0,0.0,89,0.00,CLR,,0.00,WeatherDisplay:10.37,2013-11-11 09:18:00,
2013-11-11 04:23:00,28.2,25.4,30.16,SSE,158,0.0,0.0,89,0.00,CLR,,0.00,WeatherDisplay:10.37,2013-11-11 09:23:00,
2013-11-11 04:28:00,28.2,25.4,30.17,SE,135,0.0,0.0,89,0.00,CLR,,0.00,WeatherDisplay:10.37,2013-11-11 09:28:00,
2013-11-11 04:33:00,28.9,26.6,30.17,South,180,0.0,0.0,91,0.00,CLR,,0.00,WeatherDisplay:10.37,2013-11-11 09:33:00,
2013-11-11 04:38:00,29.1,26.8,30.17,SSE,158,0.0,0.0,91,0.00,CLR,,0.00,WeatherDisplay:10.37,2013-11-11 09:38:00,
2013-11-11 04:43:00,29.7,27.4,30.16,South,180,0.5,2.7,91,0.00,CLR,,0.00,WeatherDisplay:10.37,2013-11-11 09:43:00,
2013-11-11 04:48:00,29.8,27.5,30.16,SSE,158,0.0,0.0,91,0.00,CLR,,0.00,WeatherDisplay:10.37,2013-11-11 09:48:00,
2013-11-11 04:53:00,30.2,27.9,30.15,SSE,158,0.9,2.3,91,0.00,CLR,,0.00,WeatherDisplay:10.37,2013-11-11 09:53:00,
2013-11-11 04:58:00,30.4,28.1,30.15,SE,135,1.1,1.1,91,0.00,CLR,,0.00,WeatherDisplay:10.37,2013-11-11 09:58:00,
2013-11-11 05:03:00,30.2,27.9,30.15,SE,135,0.0,0.0,91,0.00,CLR,,0.00,WeatherDisplay:10.37,2013-11-11 10:03:00,
2013-11-11 05:08:00,30.2,27.9,30.15,SSE,158,0.0,0.0,91,0.00,CLR,,0.00,WeatherDisplay:10.37,2013-11-11 10:08:00,
2013-11-11 05:13:00,30.2,27.9,30.15,ESE,112,0.0,0.0,91,0.00,BKN,,0.00,WeatherDisplay:10.37,2013-11-11 10:13:00,
2013-11-11 05:18:00,30.2,27.9,30.14,ESE,112,0.0,0.0,91,0.00,BKN,,0.00,WeatherDisplay:10.37,2013-11-11 10:18:00,
2013-11-11 05:23:00,30.2,27.9,30.14,SE,135,0.0,0.0,91,0.00,BKN,,0.00,WeatherDisplay:10.37,2013-11-11 10:23:00,
2013-11-11 05:28:00,30.6,28.3,30.15,East,90,0.0,0.0,91,0.00,BKN,,0.00,WeatherDisplay:10.37,2013-11-11 10:28:00,
2013-11-11 05:33:00,30.6,28.3,30.15,ESE,112,0.0,0.0,91,0.00,BKN,,0.00,WeatherDisplay:10.37,2013-11-11 10:33:00,
2013-11-11 05:38:00,30.6,28.3,30.15,East,90,0.0,0.0,91,0.00,BKN,,0.00,WeatherDisplay:10.37,2013-11-11 10:38:00,
2013-11-11 05:43:00,30.7,28.4,30.13,SSE,158,0.0,0.0,91,0.00,BKN,,0.00,WeatherDisplay:10.37,2013-11-11 10:43:00,
2013-11-11 05:48:00,31.1,28.8,30.13,SE,135,0.0,0.0,91,0.00,BKN,,0.00,WeatherDisplay:10.37,2013-11-11 10:48:00,
2013-11-11 05:53:00,31.5,29.2,30.13,SSE,158,1.6,1.7,91,0.00,BKN,,0.00,WeatherDisplay:10.37,2013-11-11 10:53:00,
2013-11-11 05:58:00,31.5,29.2,30.13,SSE,158,1.0,1.1,91,0.00,BKN,,0.00,WeatherDisplay:10.37,2013-11-11 10:58:00,
2013-11-11 06:03:00,31.8,29.5,30.13,South,180,0.0,0.0,91,0.00,BKN,,0.00,WeatherDisplay:10.37,2013-11-11 11:03:00,
2013-11-11 06:08:00,32.0,29.7,30.13,SSE,158,0.7,1.7,91,0.00,BKN,,0.00,WeatherDisplay:10.37,2013-11-11 11:08:00,
2013-11-11 06:13:00,32.5,29.9,30.13,South,180,0.0,0.0,90,0.00,BKN,,0.00,WeatherDisplay:10.37,2013-11-11 11:13:00,
2013-11-11 06:18:00,33.6,30.4,30.12,SSE,158,2.3,2.7,88,0.00,BKN,,0.00,WeatherDisplay:10.37,2013-11-11 11:18:00,
2013-11-11 06:23:00,34.0,30.5,30.12,NNE,22,0.0,1.1,87,0.00,BKN,,0.00,WeatherDisplay:10.37,2013-11-11 11:23:00,
2013-11-11 06:28:00,34.9,30.6,30.11,SSE,158,2.4,2.7,84,0.00,BKN,,0.00,WeatherDisplay:10.37,2013-11-11 11:28:00,
2013-11-11 06:33:00,35.6,30.9,30.11,WNW,292,2.1,2.3,83,0.00,BKN,,0.00,WeatherDisplay:10.37,2013-11-11 11:33:00,
2013-11-11 06:38:00,35.6,30.6,30.11,South,180,0.0,3.7,82,0.00,BKN,,0.00,WeatherDisplay:10.37,2013-11-11 11:38:00,
2013-11-11 06:43:00,36.0,31.0,30.11,SW,225,1.3,2.3,82,0.00,BKN,,0.00,WeatherDisplay:10.37,2013-11-11 11:43:00,
2013-11-11 06:48:00,36.5,31.2,30.11,SW,225,2.4,3.5,81,0.00,BKN,,0.00,WeatherDisplay:10.37,2013-11-11 11:48:00,
2013-11-11 06:53:00,36.5,30.9,30.11,West,270,1.9,2.3,80,0.00,BKN,,0.00,WeatherDisplay:10.37,2013-11-11 11:53:00,
2013-11-11 06:58:00,37.2,31.3,30.11,West,270,0.9,2.3,79,0.00,BKN,,0.00,WeatherDisplay:10.37,2013-11-11 11:58:00,
2013-11-11 07:03:00,37.4,31.2,30.11,West,270,2.7,2.7,78,0.00,BKN,,0.00,WeatherDisplay:10.37,2013-11-11 12:03:00,
2013-11-11 07:08:00,37.6,31.0,30.11,West,270,2.7,3.5,77,0.00,BKN,,0.00,WeatherDisplay:10.37,2013-11-11 12:08:00,
2013-11-11 07:13:00,37.6,31.0,30.11,West,270,2.7,2.7,77,0.00,BKN,,0.00,WeatherDisplay:10.37,2013-11-11 12:13:00,
2013-11-11 07:18:00,37.8,30.9,30.10,South,180,2.9,4.6,76,0.00,BKN,,0.00,WeatherDisplay:10.37,2013-11-11 12:18:00,
2013-11-11 07:23:00,37.8,30.9,30.10,South,180,1.8,2.3,76,0.00,BKN,,0.00,WeatherDisplay:10.37,2013-11-11 12:23:00,
2013-11-11 07:28:00,37.9,31.0,30.10,South,180,3.2,5.8,76,0.00,BKN,,0.00,WeatherDisplay:10.37,2013-11-11 12:28:00,
2013-11-11 07:33:00,37.9,31.0,30.10,South,180,3.7,3.7,76,0.00,BKN,,0.00,WeatherDisplay:10.37,2013-11-11 12:33:00,
2013-11-11 07:38:00,38.3,31.4,30.10,WSW,248,4.5,5.8,76,0.00,BKN,,0.00,WeatherDisplay:10.37,2013-11-11 12:38:00,
2013-11-11 07:43:00,38.7,31.5,30.10,WNW,292,3.9,5.8,75,0.00,BKN,,0.00,WeatherDisplay:10.37,2013-11-11 12:43:00,
2013-11-11 07:48:00,38.8,31.6,30.10,WNW,292,2.6,3.5,75,0.00,BKN,,0.00,WeatherDisplay:10.37,2013-11-11 12:48:00,
2013-11-11 07:53:00,39.2,31.6,30.10,West,270,5.5,5.8,74,0.00,BKN,,0.00,WeatherDisplay:10.37,2013-11-11 12:53:00,
2013-11-11 07:58:00,39.7,31.8,30.10,West,270,5.0,6.9,73,0.00,BKN,,0.00,WeatherDisplay:10.37,2013-11-11 12:58:00,
2013-11-11 08:03:00,40.1,32.1,30.10,WSW,248,5.8,7.3,73,0.00,BKN,,0.00,WeatherDisplay:10.37,2013-11-11 13:03:00,
2013-11-11 08:08:00,40.5,32.2,30.10,West,270,7.4,9.2,72,0.00,BKN,,0.00,WeatherDisplay:10.37,2013-11-11 13:08:00,
2013-11-11 08:13:00,40.8,32.5,30.10,WSW,248,7.0,11.4,72,0.00,BKN,,0.00,WeatherDisplay:10.37,2013-11-11 13:13:00,
2013-11-11 08:18:00,41.2,32.5,30.09,SSW,202,9.0,11.5,71,0.00,BKN,,0.00,WeatherDisplay:10.37,2013-11-11 13:18:00,
2013-11-11 08:23:00,41.4,32.7,30.09,SW,225,5.0,8.8,71,0.00,BKN,,0.00,WeatherDisplay:10.37,2013-11-11 13:23:00,
2013-11-11 08:28:00,41.7,32.6,30.09,West,270,8.1,10.4,70,0.00,BKN,,0.00,WeatherDisplay:10.37,2013-11-11 13:28:00,
2013-11-11 08:33:00,41.7,32.6,30.09,WSW,248,5.8,8.3,70,0.00,BKN,,0.00,WeatherDisplay:10.37,2013-11-11 13:33:00,
2013-11-11 08:38:00,41.7,32.6,30.09,SSW,202,6.4,9.2,70,0.00,BKN,,0.00,WeatherDisplay:10.37,2013-11-11 13:38:00,
2013-11-11 08:43:00,41.7,32.3,30.08,WSW,248,6.9,7.8,69,0.00,BKN,,0.00,WeatherDisplay:10.37,2013-11-11 13:43:00,
2013-11-11 08:48:00,41.7,32.3,30.08,SW,225,7.0,11.5,69,0.00,BKN,,0.00,WeatherDisplay:10.37,2013-11-11 13:48:00,
2013-11-11 08:53:00,41.7,32.3,30.08,West,270,7.3,9.2,69,0.00,BKN,,0.00,WeatherDisplay:10.37,2013-11-11 13:53:00,
2013-11-11 08:58:00,41.7,32.3,30.08,NW,315,7.8,8.1,69,0.00,BKN,,0.00,WeatherDisplay:10.37,2013-11-11 13:58:00,
2013-11-11 09:03:00,41.7,32.3,30.08,West,270,5.3,5.8,69,0.00,BKN,,0.00,WeatherDisplay:10.37,2013-11-11 14:03:00,
2013-11-11 09:08:00,41.7,32.3,30.08,WSW,248,5.3,6.9,69,0.00,BKN,,0.00,WeatherDisplay:10.37,2013-11-11 14:08:00,
2013-11-11 09:13:00,41.7,32.3,30.08,South,180,7.1,8.1,69,0.00,OVC,,0.00,WeatherDisplay:10.37,2013-11-11 14:13:00,
2013-11-11 09:18:00,41.7,32.3,30.06,WSW,248,6.1,9.4,69,0.00,OVC,,0.00,WeatherDisplay:10.37,2013-11-11 14:18:00,
2013-11-11 09:23:00,41.9,32.5,30.06,WSW,248,5.6,8.8,69,0.00,OVC,,0.00,WeatherDisplay:10.37,2013-11-11 14:23:00,
2013-11-11 09:28:00,41.9,32.5,30.06,WSW,248,6.2,8.1,69,0.00,OVC,,0.00,WeatherDisplay:10.37,2013-11-11 14:28:00,
2013-11-11 09:33:00,41.9,32.5,30.06,WNW,292,6.5,11.5,69,0.00,OVC,,0.00,WeatherDisplay:10.37,2013-11-11 14:33:00,
2013-11-11 09:38:00,41.9,32.5,30.06,WSW,248,5.6,9.9,69,0.00,OVC,,0.00,WeatherDisplay:10.37,2013-11-11 14:38:00,
2013-11-11 09:43:00,41.7,32.3,30.07,North,360,7.0,9.2,69,0.00,OVC,,0.00,WeatherDisplay:10.37,2013-11-11 14:43:00,
2013-11-11 09:48:00,41.9,32.5,30.07,West,270,6.2,6.9,69,0.00,OVC,,0.00,WeatherDisplay:10.37,2013-11-11 14:48:00,
2013-11-11 09:53:00,41.9,32.1,30.06,West,270,5.2,6.9,68,0.00,OVC,,0.00,WeatherDisplay:10.37,2013-11-11 14:53:00,
2013-11-11 09:58:00,41.9,31.7,30.06,WNW,292,7.3,8.1,67,0.00,OVC,,0.00,WeatherDisplay:10.37,2013-11-11 14:58:00,
2013-11-11 10:03:00,42.1,31.9,30.04,NE,45,5.5,5.8,67,0.00,OVC,,0.00,WeatherDisplay:10.37,2013-11-11 15:03:00,
2013-11-11 10:08:00,42.3,31.7,30.04,WSW,248,6.3,9.4,66,0.00,OVC,,0.00,WeatherDisplay:10.37,2013-11-11 15:08:00,
2013-11-11 10:13:00,42.4,31.5,30.04,West,270,4.4,5.8,65,0.00,OVC,,0.00,WeatherDisplay:10.37,2013-11-11 15:13:00,
2013-11-11 10:18:00,42.8,31.5,30.04,West,270,6.2,7.8,64,0.00,OVC,,0.00,WeatherDisplay:10.37,2013-11-11 15:18:00,
2013-11-11 10:23:00,42.8,31.5,30.04,West,270,5.3,9.2,64,0.00,OVC,,0.00,WeatherDisplay:10.37,2013-11-11 15:23:00,
2013-11-11 10:28:00,43.0,31.6,30.03,WSW,248,4.8,9.2,64,0.00,OVC,,0.00,WeatherDisplay:10.37,2013-11-11 15:28:00,
2013-11-11 10:33:00,43.2,31.8,30.03,WSW,248,7.3,7.3,64,0.00,OVC,,0.00,WeatherDisplay:10.37,2013-11-11 15:33:00,
2013-11-11 10:38:00,43.5,31.3,30.02,NW,315,8.2,9.9,62,0.00,OVC,,0.00,WeatherDisplay:10.37,2013-11-11 15:38:00,
2013-11-11 10:43:00,43.2,31.1,30.02,West,270,5.9,9.2,62,0.00,OVC,,0.00,WeatherDisplay:10.37,2013-11-11 15:43:00,
2013-11-11 10:48:00,43.2,31.1,30.02,West,270,7.1,8.1,62,0.00,OVC,,0.00,WeatherDisplay:10.37,2013-11-11 15:48:00,
2013-11-11 10:53:00,43.2,30.6,30.02,SW,225,7.7,8.1,61,0.00,OVC,,0.00,WeatherDisplay:10.37,2013-11-11 15:53:00,
2013-11-11 10:58:00,43.2,30.6,30.02,West,270,7.0,7.0,61,0.00,OVC,,0.00,WeatherDisplay:10.37,2013-11-11 15:58:00,
2013-11-11 11:03:00,43.2,30.6,30.02,West,270,6.3,10.4,61,0.00,OVC,,0.00,WeatherDisplay:10.37,2013-11-11 16:03:00,
2013-11-11 11:08:00,43.2,30.2,30.02,SW,225,11.4,15.0,60,0.00,OVC,,0.00,WeatherDisplay:10.37,2013-11-11 16:08:00,
2013-11-11 11:13:00,43.2,30.2,30.02,West,270,7.0,10.4,60,0.00,OVC,,0.00,WeatherDisplay:10.37,2013-11-11 16:13:00,
2013-11-11 11:18:00,43.2,30.2,30.02,North,360,7.9,9.2,60,0.00,OVC,,0.00,WeatherDisplay:10.37,2013-11-11 16:18:00,
2013-11-11 11:23:00,43.3,30.3,30.02,West,270,7.1,7.1,60,0.00,OVC,,0.00,WeatherDisplay:10.37,2013-11-11 16:23:00,
2013-11-11 11:28:00,43.5,30.1,30.01,NNE,22,8.0,9.2,59,0.00,OVC,,0.00,WeatherDisplay:10.37,2013-11-11 16:28:00,
2013-11-11 11:33:00,43.9,30.1,30.01,West,270,6.3,8.1,58,0.00,OVC,,0.00,WeatherDisplay:10.37,2013-11-11 16:33:00,
2013-11-11 11:38:00,44.1,29.8,30.01,West,270,6.0,8.3,57,0.00,OVC,,0.00,WeatherDisplay:10.37,2013-11-11 16:38:00,
2013-11-11 11:43:00,44.2,29.5,30.01,WSW,248,5.3,5.8,56,0.00,OVC,,0.00,WeatherDisplay:10.37,2013-11-11 16:43:00,
2013-11-11 11:48:00,44.4,29.7,30.01,WNW,292,7.7,9.2,56,0.00,OVC,,0.00,WeatherDisplay:10.37,2013-11-11 16:48:00,
2013-11-11 11:53:00,44.2,29.0,30.00,WSW,248,8.6,10.4,55,0.00,OVC,,0.00,WeatherDisplay:10.37,2013-11-11 16:53:00,
2013-11-11 11:58:00,44.1,28.9,30.00,West,270,8.8,10.4,55,0.00,OVC,,0.00,WeatherDisplay:10.37,2013-11-11 16:58:00,
2013-11-11 12:03:00,44.1,28.9,30.00,SW,225,4.5,10.4,55,0.00,OVC,,0.00,WeatherDisplay:10.37,2013-11-11 17:03:00,
2013-11-11 12:08:00,44.1,28.9,30.00,WSW,248,7.2,7.8,55,0.00,OVC,,0.00,WeatherDisplay:10.37,2013-11-11 17:08:00,
2013-11-11 12:13:00,44.1,28.9,30.00,WSW,248,10.1,11.5,55,0.00,OVC,,0.00,WeatherDisplay:10.37,2013-11-11 17:13:00,
2013-11-11 12:18:00,44.1,28.9,29.99,SW,225,9.2,10.4,55,0.00,OVC,,0.00,WeatherDisplay:10.37,2013-11-11 17:18:00,
2013-11-11 12:23:00,44.1,29.4,29.99,West,270,6.9,8.1,56,0.00,OVC,,0.00,WeatherDisplay:10.37,2013-11-11 17:23:00,
2013-11-11 12:28:00,43.9,29.6,29.99,SW,225,7.8,11.5,57,0.00,OVC,,0.00,WeatherDisplay:10.37,2013-11-11 17:28:00,
2013-11-11 12:33:00,43.7,29.9,29.99,West,270,11.4,11.5,58,0.00,OVC,,0.00,WeatherDisplay:10.37,2013-11-11 17:33:00,
2013-11-11 12:38:00,43.7,29.9,29.98,West,270,11.4,11.5,58,0.00,OVC,,0.00,WeatherDisplay:10.37,2013-11-11 17:38:00,
2013-11-11 12:43:00,43.5,30.5,29.98,WSW,248,7.5,11.4,60,0.00,OVC,,0.00,WeatherDisplay:10.37,2013-11-11 17:43:00,
2013-11-11 12:48:00,43.5,30.9,29.98,WNW,292,6.1,8.1,61,0.00,OVC,,0.00,WeatherDisplay:10.37,2013-11-11 17:48:00,
2013-11-11 12:53:00,43.2,31.4,29.97,West,270,7.3,12.7,63,0.00,OVC,,0.00,WeatherDisplay:10.37,2013-11-11 17:53:00,
2013-11-11 12:58:00,43.2,31.4,29.97,WSW,248,6.3,6.3,63,0.00,OVC,,0.00,WeatherDisplay:10.37,2013-11-11 17:58:00,
2013-11-11 13:03:00,43.0,31.6,29.96,WSW,248,5.9,9.2,64,0.00,OVC,,0.00,WeatherDisplay:10.37,2013-11-11 18:03:00,
2013-11-11 13:08:00,42.8,31.5,29.96,SW,225,11.8,16.6,64,0.00,OVC,,0.00,WeatherDisplay:10.37,2013-11-11 18:08:00,
2013-11-11 13:13:00,42.6,31.7,29.96,WSW,248,10.2,13.8,65,0.00,-RA,,0.00,WeatherDisplay:10.37,2013-11-11 18:13:00,
2013-11-11 13:18:00,42.8,32.2,29.95,West,270,7.2,10.4,66,0.00,-RA,,0.00,WeatherDisplay:10.37,2013-11-11 18:18:00,
2013-11-11 13:23:00,43.0,32.4,29.95,West,270,7.0,9.4,66,0.00,-RA,,0.00,WeatherDisplay:10.37,2013-11-11 18:23:00,
2013-11-11 13:28:00,43.2,31.8,29.95,West,270,6.6,7.8,64,0.00,-RA,,0.00,WeatherDisplay:10.37,2013-11-11 18:28:00,
2013-11-11 13:33:00,43.7,31.5,29.95,SSW,202,8.5,10.4,62,0.00,-RA,,0.00,WeatherDisplay:10.37,2013-11-11 18:33:00,
2013-11-11 13:38:00,43.7,31.5,29.94,West,270,6.9,8.8,62,0.00,-RA,,0.00,WeatherDisplay:10.37,2013-11-11 18:38:00,
2013-11-11 13:43:00,43.9,31.3,29.94,WNW,292,12.0,15.5,61,0.00,-RA,,0.00,WeatherDisplay:10.37,2013-11-11 18:43:00,
2013-11-11 13:48:00,43.7,31.5,29.94,South,180,5.4,6.9,62,0.00,-RA,,0.00,WeatherDisplay:10.37,2013-11-11 18:48:00,
2013-11-11 13:53:00,43.7,31.5,29.94,WSW,248,9.0,9.2,62,0.00,-RA,,0.00,WeatherDisplay:10.37,2013-11-11 18:53:00,
2013-11-11 13:58:00,43.7,31.9,29.94,WSW,248,10.2,11.5,63,0.00,-RA,,0.00,WeatherDisplay:10.37,2013-11-11 18:58:00,
2013-11-11 14:03:00,43.5,32.5,29.94,SSW,202,11.0,15.0,65,0.00,-RA,,0.00,WeatherDisplay:10.37,2013-11-11 19:03:00,
2013-11-11 14:08:00,43.5,32.9,29.94,WSW,248,10.6,11.4,66,0.00,-RA,,0.01,WeatherDisplay:10.37,2013-11-11 19:08:00,
2013-11-11 14:13:00,43.5,34.4,29.94,WSW,248,11.3,13.8,70,0.01,-RA,,0.01,WeatherDisplay:10.37,2013-11-11 19:13:00,
2013-11-11 14:18:00,43.2,35.1,29.93,WSW,248,9.1,10.4,73,0.01,-RA,,0.01,WeatherDisplay:10.37,2013-11-11 19:18:00,
2013-11-11 14:23:00,43.0,35.3,29.93,SW,225,9.8,11.9,74,0.01,-RA,,0.02,WeatherDisplay:10.37,2013-11-11 19:23:00,
2013-11-11 14:28:00,42.8,35.1,29.93,SW,225,8.4,10.4,74,0.02,-RA,,0.02,WeatherDisplay:10.37,2013-11-11 19:28:00,
2013-11-11 14:33:00,42.8,35.4,29.93,West,270,10.1,11.5,75,0.02,-RA,,0.02,WeatherDisplay:10.37,2013-11-11 19:33:00,
2013-11-11 14:38:00,42.6,35.9,29.94,SW,225,10.3,15.0,77,0.03,-RA,,0.03,WeatherDisplay:10.37,2013-11-11 19:38:00,
2013-11-11 14:43:00,42.4,36.0,29.94,WSW,248,7.3,10.4,78,0.04,-RA,,0.04,WeatherDisplay:10.37,2013-11-11 19:43:00,
2013-11-11 14:48:00,42.3,35.9,29.94,West,270,11.5,16.1,78,0.04,-RA,,0.04,WeatherDisplay:10.37,2013-11-11 19:48:00,
2013-11-11 14:53:00,42.1,36.4,29.94,WSW,248,12.2,12.2,80,0.05, +RA,,0.06,WeatherDisplay:10.37,2013-11-11 19:53:00,
2013-11-11 14:58:00,41.9,36.2,29.94,WSW,248,12.7,17.3,80,0.06, +RA,,0.06,WeatherDisplay:10.37,2013-11-11 19:58:00,
2013-11-11 15:03:00,41.7,36.0,29.94,North,360,12.8,16.1,80,0.08, +RA,,0.08,WeatherDisplay:10.37,2013-11-11 20:03:00,
2013-11-11 15:08:00,41.5,36.1,29.94,SW,225,7.6,10.4,81,0.08, +RA,,0.09,WeatherDisplay:10.37,2013-11-11 20:08:00,
2013-11-11 15:13:00,41.5,36.4,29.94,West,270,17.2,20.7,82,0.09,RA,,0.10,WeatherDisplay:10.37,2013-11-11 20:13:00,
2013-11-11 15:18:00,41.0,36.5,29.94,West,270,9.7,15.0,84,0.11,RA,,0.12,WeatherDisplay:10.37,2013-11-11 20:18:00,
2013-11-11 15:23:00,40.8,36.6,29.94,West,270,9.9,11.5,85,0.13,RA,,0.15,WeatherDisplay:10.37,2013-11-11 20:23:00,
2013-11-11 15:28:00,40.8,36.9,29.95,SW,225,7.5,9.2,86,0.15,RA,,0.17,WeatherDisplay:10.37,2013-11-11 20:28:00,
2013-11-11 15:33:00,40.6,36.7,29.95,WSW,248,8.8,10.4,86,0.18,RA,,0.20,WeatherDisplay:10.37,2013-11-11 20:33:00,
2013-11-11 15:38:00,40.3,36.4,29.95,West,270,12.6,16.1,86,0.20,RA,,0.24,WeatherDisplay:10.37,2013-11-11 20:38:00,
2013-11-11 15:43:00,39.7,36.1,29.95,South,180,13.5,19.6,87,0.24,RA,,0.28,WeatherDisplay:10.37,2013-11-11 20:43:00,
2013-11-11 15:48:00,39.6,36.0,29.95,WSW,248,12.2,16.1,87,0.27,RA,,0.31,WeatherDisplay:10.37,2013-11-11 20:48:00,
2013-11-11 15:53:00,39.2,35.7,29.95,WSW,248,8.2,10.4,87,0.28,RA,,0.33,WeatherDisplay:10.37,2013-11-11 20:53:00,
2013-11-11 15:58:00,39.0,35.7,29.95,WSW,248,8.0,10.4,88,0.28,RA,,0.34,WeatherDisplay:10.37,2013-11-11 20:58:00,
2013-11-11 16:03:00,39.0,36.0,29.95,South,180,10.5,13.5,89,0.26,RA,,0.35,WeatherDisplay:10.37,2013-11-11 21:03:00,
2013-11-11 16:08:00,39.0,36.0,29.95,WSW,248,10.0,12.7,89,0.28,RA,,0.36,WeatherDisplay:10.37,2013-11-11 21:08:00,
2013-11-11 16:13:00,39.0,36.0,29.95,WSW,248,9.4,9.4,89,0.26,RA,,0.36,WeatherDisplay:10.37,2013-11-11 21:13:00,
2013-11-11 16:18:00,39.2,37.1,29.96,West,270,3.6,4.2,92,0.25,RA,,0.37,WeatherDisplay:10.37,2013-11-11 21:18:00,
2013-11-11 16:23:00,39.9,38.0,29.96,WSW,248,4.3,5.8,93,0.23,RA,,0.37,WeatherDisplay:10.37,2013-11-11 21:23:00,
2013-11-11 16:28:00,39.9,38.0,29.96,WSW,248,7.4,9.2,93,0.21,RA,,0.38,WeatherDisplay:10.37,2013-11-11 21:28:00,
2013-11-11 16:33:00,39.9,37.8,29.96,SW,225,7.3,8.1,92,0.19,RA,,0.39,WeatherDisplay:10.37,2013-11-11 21:33:00,
2013-11-11 16:38:00,39.9,37.2,29.96,West,270,9.6,11.5,90,0.16,RA,,0.39,WeatherDisplay:10.37,2013-11-11 21:38:00,
2013-11-11 16:43:00,39.7,37.0,29.96,SW,225,8.9,13.0,90,0.12,RA,,0.40,WeatherDisplay:10.37,2013-11-11 21:43:00,
2013-11-11 16:48:00,39.6,37.2,29.96,WSW,248,6.7,9.9,91,0.09,RA,,0.40,WeatherDisplay:10.37,2013-11-11 21:48:00,
2013-11-11 16:53:00,39.4,37.0,29.96,West,270,7.3,8.8,91,0.08,-RA,,0.41,WeatherDisplay:10.37,2013-11-11 21:53:00,
2013-11-11 16:58:00,39.4,37.0,29.96,West,270,7.6,10.4,91,0.07,-RA,,0.41,WeatherDisplay:10.37,2013-11-11 21:58:00,
2013-11-11 17:03:00,39.2,36.8,29.96,West,270,8.0,10.4,91,0.07,-RA,,0.41,WeatherDisplay:10.37,2013-11-11 22:03:00,
2013-11-11 17:08:00,39.2,36.8,29.96,SW,225,6.6,6.9,91,0.06,-RA,,0.42,WeatherDisplay:10.37,2013-11-11 22:08:00,
2013-11-11 17:13:00,39.0,36.6,29.96,SW,225,6.6,9.2,91,0.06,-RA,,0.42,WeatherDisplay:10.37,2013-11-11 22:13:00,
2013-11-11 17:18:00,39.0,36.6,29.97,SSW,202,5.9,6.9,91,0.06,-RA,,0.43,WeatherDisplay:10.37,2013-11-11 22:18:00,
2013-11-11 17:23:00,39.0,36.6,29.97,West,270,5.2,5.8,91,0.07,-RA,,0.44,WeatherDisplay:10.37,2013-11-11 22:23:00,
2013-11-11 17:28:00,38.7,36.3,29.97,WSW,248,10.8,14.0,91,0.06,-RA,,0.44,WeatherDisplay:10.37,2013-11-11 22:28:00,
2013-11-11 17:33:00,38.7,36.3,29.97,West,270,8.2,9.2,91,0.05,-RA,,0.44,WeatherDisplay:10.37,2013-11-11 22:33:00,
2013-11-11 17:38:00,38.5,36.1,29.98,WNW,292,4.6,5.8,91,0.06,-RA,,0.45,WeatherDisplay:10.37,2013-11-11 22:38:00,
2013-11-11 17:43:00,38.5,36.1,29.98,NNW,338,7.2,9.2,91,0.05,-RA,,0.46,WeatherDisplay:10.37,2013-11-11 22:43:00,
2013-11-11 17:48:00,38.3,35.9,29.98,WNW,292,7.8,10.4,91,0.06,-RA,,0.46,WeatherDisplay:10.37,2013-11-11 22:48:00,
2013-11-11 17:53:00,38.3,35.9,29.98,SW,225,6.8,6.9,91,0.05,-RA,,0.46,WeatherDisplay:10.37,2013-11-11 22:53:00,
2013-11-11 17:58:00,38.3,36.2,29.98,SSW,202,6.7,8.1,92,0.06,-RA,,0.47,WeatherDisplay:10.37,2013-11-11 22:58:00,
2013-11-11 18:03:00,38.1,36.0,29.98,West,270,4.1,4.6,92,0.07,-RA,,0.48,WeatherDisplay:10.37,2013-11-11 23:03:00,
2013-11-11 18:08:00,38.1,36.0,29.98,West,270,5.0,5.8,92,0.07,-RA,,0.49,WeatherDisplay:10.37,2013-11-11 23:08:00,
2013-11-11 18:13:00,37.2,35.1,29.98,WSW,248,9.8,11.5,92,0.08,-RA,,0.50,WeatherDisplay:10.37,2013-11-11 23:13:00,
2013-11-11 18:18:00,36.5,34.4,30.00,NW,315,5.1,10.4,92,0.07,-RA,,0.50,WeatherDisplay:10.37,2013-11-11 23:18:00,
2013-11-11 18:23:00,36.0,33.9,30.00,WNW,292,7.0,11.5,92,0.07,-RA,,0.51,WeatherDisplay:10.37,2013-11-11 23:23:00,
2013-11-11 18:28:00,35.4,33.3,30.01,WNW,292,8.7,11.4,92,0.07,-RA,,0.52,WeatherDisplay:10.37,2013-11-11 23:28:00,
2013-11-11 18:33:00,34.9,32.8,30.01,West,270,8.2,12.7,92,0.08,RA,,0.52,WeatherDisplay:10.37,2013-11-11 23:33:00,
2013-11-11 18:38:00,34.3,32.2,30.01,WNW,292,7.8,12.7,92,0.08,RA,,0.53,WeatherDisplay:10.37,2013-11-11 23:38:00,
2013-11-11 18:43:00,34.2,32.4,30.01,SW,225,6.1,8.1,93,0.08,RA,,0.53,WeatherDisplay:10.37,2013-11-11 23:43:00,
2013-11-11 18:48:00,34.0,32.2,30.01,WNW,292,4.0,5.3,93,0.07,OVC,,0.53,WeatherDisplay:10.37,2013-11-11 23:48:00,
2013-11-11 18:53:00,33.8,32.0,30.02,NNW,338,2.6,4.6,93,0.08,RA,,0.54,WeatherDisplay:10.37,2013-11-11 23:53:00,
2013-11-11 18:58:00,33.6,32.1,30.02,WSW,248,3.4,4.6,94,0.07,RA,,0.54,WeatherDisplay:10.37,2013-11-11 23:58:00,
2013-11-11 19:03:00,33.4,31.9,30.02,WNW,292,6.0,9.2,94,0.06,OVC,,0.54,WeatherDisplay:10.37,2013-11-12 00:03:00,
2013-11-11 19:08:00,33.1,31.6,30.02,WNW,292,3.0,5.8,94,0.05,OVC,,0.54,WeatherDisplay:10.37,2013-11-12 00:08:00,
2013-11-11 19:13:00,32.9,31.6,30.02,SW,225,4.6,5.8,95,0.04,-SN,,0.54,WeatherDisplay:10.37,2013-11-12 00:13:00,
2013-11-11 19:18:00,32.9,31.6,30.03,WSW,248,4.6,5.8,95,0.04,-SN,,0.54,WeatherDisplay:10.37,2013-11-12 00:18:00,
2013-11-11 19:23:00,32.7,31.4,30.03,SW,225,7.5,10.4,95,0.03,-SN,,0.54,WeatherDisplay:10.37,2013-11-12 00:23:00,
2013-11-11 19:28:00,32.4,31.1,30.04,WSW,248,6.6,10.4,95,0.03,-SN,,0.54,WeatherDisplay:10.37,2013-11-12 00:28:00,
2013-11-11 19:33:00,32.2,30.9,30.04,West,270,5.2,7.3,95,0.02,-SN,,0.54,WeatherDisplay:10.37,2013-11-12 00:33:00,
2013-11-11 19:38:00,32.2,30.9,30.04,SW,225,4.2,7.3,95,0.01,-SN,,0.54,WeatherDisplay:10.37,2013-11-12 00:38:00,
2013-11-11 19:43:00,32.2,30.9,30.04,NW,315,4.0,6.9,95,0.01,-SN,,0.54,WeatherDisplay:10.37,2013-11-12 00:43:00,
2013-11-11 19:48:00,32.2,30.9,30.04,West,270,3.4,6.8,95,0.01,-SN,,0.54,WeatherDisplay:10.37,2013-11-12 00:48:00,
2013-11-11 19:53:00,32.0,30.7,30.05,WNW,292,4.1,5.8,95,0.00,-SN,,0.54,WeatherDisplay:10.37,2013-11-12 00:53:00,
2013-11-11 19:58:00,31.8,30.5,30.05,WNW,292,4.9,8.1,95,0.00,-SN,,0.54,WeatherDisplay:10.37,2013-11-12 00:58:00,
2013-11-11 20:03:00,31.8,30.5,30.05,West,270,4.8,8.1,95,0.00,-SN,,0.54,WeatherDisplay:10.37,2013-11-12 01:03:00,
2013-11-11 20:08:00,31.8,30.5,30.05,NNW,338,3.9,5.8,95,0.00,-SN,,0.54,WeatherDisplay:10.37,2013-11-12 01:08:00,
2013-11-11 20:13:00,31.6,30.3,30.05,North,360,5.0,8.1,95,0.00,-SN,,0.54,WeatherDisplay:10.37,2013-11-12 01:13:00,
2013-11-11 20:18:00,31.6,30.3,30.05,NW,315,3.2,6.9,95,0.00,-SN,,0.54,WeatherDisplay:10.37,2013-11-12 01:18:00,
2013-11-11 20:23:00,31.5,30.2,30.05,SSW,202,2.0,2.3,95,0.00,-SN,,0.54,WeatherDisplay:10.37,2013-11-12 01:23:00,
2013-11-11 20:28:00,31.5,30.2,30.07,West,270,4.8,5.8,95,0.00,-SN,,0.54,WeatherDisplay:10.37,2013-11-12 01:28:00,
2013-11-11 20:33:00,31.5,30.2,30.07,West,270,3.6,4.6,95,0.00,-SN,,0.54,WeatherDisplay:10.37,2013-11-12 01:33:00,
2013-11-11 20:38:00,31.5,30.2,30.06,West,270,4.7,6.9,95,0.00,-SN,,0.54,WeatherDisplay:10.37,2013-11-12 01:38:00,
2013-11-11 20:43:00,31.5,30.2,30.06,WSW,248,4.2,4.6,95,0.00,-SN,,0.54,WeatherDisplay:10.37,2013-11-12 01:43:00,
2013-11-11 20:48:00,31.5,30.2,30.06,West,270,4.4,5.8,95,0.00,-SN,,0.54,WeatherDisplay:10.37,2013-11-12 01:48:00,
2013-11-11 20:53:00,31.5,30.2,30.07,West,270,6.6,9.9,95,0.00,-SN,,0.54,WeatherDisplay:10.37,2013-11-12 01:53:00,
2013-11-11 20:58:00,30.6,29.3,30.07,NW,315,4.3,8.8,95,0.00,-SN,,0.54,WeatherDisplay:10.37,2013-11-12 01:58:00,
2013-11-11 21:03:00,30.6,29.3,30.08,NNE,22,3.8,5.8,95,0.00,-SN,,0.54,WeatherDisplay:10.37,2013-11-12 02:03:00,
2013-11-11 21:08:00,30.4,29.1,30.08,NNW,338,5.4,5.8,95,0.00,-SN,,0.54,WeatherDisplay:10.37,2013-11-12 02:08:00,
2013-11-11 21:13:00,30.0,28.7,30.08,NNW,338,6.6,6.9,95,0.00,-SN,,0.54,WeatherDisplay:10.37,2013-11-12 02:13:00,
2013-11-11 21:18:00,29.8,28.5,30.09,NNW,338,3.8,6.9,95,0.00,-SN,,0.54,WeatherDisplay:10.37,2013-11-12 02:18:00,
2013-11-11 21:23:00,29.7,28.4,30.09,NNE,22,4.2,8.1,95,0.00,-SN,,0.54,WeatherDisplay:10.37,2013-11-12 02:23:00,
2013-11-11 21:28:00,29.3,27.8,30.10,NNW,338,6.9,7.8,94,0.00,-SN,,0.54,WeatherDisplay:10.37,2013-11-12 02:28:00,
2013-11-11 21:33:00,29.3,27.5,30.10,SSW,202,5.3,5.8,93,0.00,-SN,,0.54,WeatherDisplay:10.37,2013-11-12 02:33:00,
2013-11-11 21:38:00,29.1,27.3,30.10,East,90,3.8,3.8,93,0.00,-SN,,0.54,WeatherDisplay:10.37,2013-11-12 02:38:00,
2013-11-11 21:43:00,28.9,27.4,30.10,West,270,5.8,6.8,94,0.00,-SN,,0.54,WeatherDisplay:10.37,2013-11-12 02:43:00,
2013-11-11 21:48:00,28.9,27.4,30.10,West,270,2.4,3.5,94,0.00,-SN,,0.54,WeatherDisplay:10.37,2013-11-12 02:48:00,
2013-11-11 21:53:00,28.8,27.3,30.10,SW,225,2.6,4.6,94,0.00,-SN,,0.54,WeatherDisplay:10.37,2013-11-12 02:53:00,
2013-11-11 21:58:00,28.8,27.3,30.10,West,270,2.1,2.3,94,0.00,-SN,,0.54,WeatherDisplay:10.37,2013-11-12 02:58:00,
2013-11-11 22:03:00,28.8,27.3,30.10,West,270,1.3,2.3,94,0.00,-SN,,0.54,WeatherDisplay:10.37,2013-11-12 03:03:00,
2013-11-11 22:08:00,28.8,27.3,30.10,West,270,2.4,3.5,94,0.00,-SN,,0.54,WeatherDisplay:10.37,2013-11-12 03:08:00,
2013-11-11 22:13:00,28.8,26.8,30.10,West,270,3.7,4.2,92,0.00,-SN,,0.54,WeatherDisplay:10.37,2013-11-12 03:13:00,
2013-11-11 22:18:00,28.9,26.1,30.10,WNW,292,4.4,5.8,89,0.00,-SN,,0.54,WeatherDisplay:10.37,2013-11-12 03:18:00,
2013-11-11 22:23:00,28.9,26.9,30.10,North,360,3.0,4.6,92,0.00,-SN,,0.54,WeatherDisplay:10.37,2013-11-12 03:23:00,
2013-11-11 22:28:00,29.1,26.3,30.11,West,270,2.3,2.3,89,0.00,-SN,,0.54,WeatherDisplay:10.37,2013-11-12 03:28:00,
2013-11-11 22:33:00,29.3,25.9,30.11,SSW,202,2.2,5.8,87,0.00,-SN,,0.54,WeatherDisplay:10.37,2013-11-12 03:33:00,
2013-11-11 22:38:00,29.3,26.2,30.12,West,270,3.5,3.7,88,0.00,-SN,,0.54,WeatherDisplay:10.37,2013-11-12 03:38:00,
2013-11-11 22:43:00,29.5,25.8,30.12,West,270,4.4,6.9,86,0.00,-SN,,0.54,WeatherDisplay:10.37,2013-11-12 03:43:00,
2013-11-11 22:48:00,29.5,25.5,30.12,SW,225,4.3,4.6,85,0.00,-SN,,0.54,WeatherDisplay:10.37,2013-11-12 03:48:00,
2013-11-11 22:53:00,29.5,25.5,30.12,SW,225,4.7,4.7,85,0.00,-SN,,0.54,WeatherDisplay:10.37,2013-11-12 03:53:00,
2013-11-11 22:58:00,29.5,25.8,30.12,SW,225,4.2,4.6,86,0.00,-SN,,0.54,WeatherDisplay:10.37,2013-11-12 03:58:00,
2013-11-11 23:04:00,29.3,25.6,30.12,SW,225,2.0,2.7,86,0.00,-SN,,0.54,WeatherDisplay:10.37,2013-11-12 04:04:00,
2013-11-11 23:09:00,29.3,25.9,30.12,SW,225,0.1,1.1,87,0.00,-SN,,0.54,WeatherDisplay:10.37,2013-11-12 04:09:00,
2013-11-11 23:14:00,29.3,25.6,30.12,West,270,2.1,2.7,86,0.00,OVC,,0.54,WeatherDisplay:10.37,2013-11-12 04:14:00,
2013-11-11 23:19:00,29.3,25.9,30.13,SW,225,1.7,2.3,87,0.00,OVC,,0.54,WeatherDisplay:10.37,2013-11-12 04:19:00,
2013-11-11 23:24:00,29.3,25.9,30.13,West,270,0.9,1.7,87,0.00,OVC,,0.54,WeatherDisplay:10.37,2013-11-12 04:24:00,
2013-11-11 23:29:00,29.3,25.9,30.12,West,270,0.1,1.1,87,0.00,OVC,,0.54,WeatherDisplay:10.37,2013-11-12 04:29:00,
2013-11-11 23:34:00,28.9,25.8,30.12,South,180,1.3,1.7,88,0.00,OVC,,0.54,WeatherDisplay:10.37,2013-11-12 04:34:00,
2013-11-11 23:39:00,28.9,26.1,30.13,SW,225,0.0,0.0,89,0.00,OVC,,0.54,WeatherDisplay:10.37,2013-11-12 04:39:00,
2013-11-11 23:44:00,28.8,26.2,30.13,WSW,248,1.4,1.4,90,0.00,OVC,,0.54,WeatherDisplay:10.37,2013-11-12 04:44:00,
2013-11-11 23:49:00,28.8,26.2,30.13,WNW,292,2.3,3.7,90,0.00,OVC,,0.54,WeatherDisplay:10.37,2013-11-12 04:49:00,
2013-11-11 23:54:00,29.1,25.4,30.14,West,270,0.6,1.7,86,0.00,OVC,,0.54,WeatherDisplay:10.37,2013-11-12 04:54:00,
2013-11-11 23:59:00,29.3,25.1,30.14,West,270,3.5,4.6,84,0.00,OVC,,0.54,WeatherDisplay:10.37,2013-11-12 04:59:00,